TAF KABQ
KABQ 280521Z 2806/2906 09011KT P6SM SKC FM281100 36006KT P6SM SKC FM281800 VRB06KT P6SM SKC=
METAR KABQ
WC KABQ
WS KABQ
WV KABQ